sensor_id;sensor_type;location;lat;lon;timestamp;noise_LAeq;noise_LA_min;noise_LA_max;noise_LA01;noise_LA95
46584;Laerm;32309;48.858;8.252;2023-05-10T00:01:05;62.53;56.03;64.75;;
46584;Laerm;32309;48.858;8.252;2023-05-10T00:03:05;62.43;55.49;65.12;;
46584;Laerm;32309;48.858;8.252;2023-05-10T00:05:06;61.92;55.88;64.36;;
46584;Laerm;32309;48.858;8.252;2023-05-10T00:07:07;62.15;56.93;64.46;;
46584;Laerm;32309;48.858;8.252;2023-05-10T00:11:16;62.69;55.59;65.28;;
46584;Laerm;32309;48.858;8.252;2023-05-10T00:13:16;62.99;56.01;65.36;;
46584;Laerm;32309;48.858;8.252;2023-05-10T00:15:17;63.42;56.59;65.88;;
46584;Laerm;32309;48.858;8.252;2023-05-10T00:17:17;63.30;56.20;65.62;;
46584;Laerm;32309;48.858;8.252;2023-05-10T00:19:17;62.70;56.80;65.70;;
46584;Laerm;32309;48.858;8.252;2023-05-10T00:21:17;63.72;56.90;65.61;;
46584;Laerm;32309;48.858;8.252;2023-05-10T00:23:18;63.24;55.95;65.53;;
46584;Laerm;32309;48.858;8.252;2023-05-10T00:25:18;63.41;57.57;65.66;;
46584;Laerm;32309;48.858;8.252;2023-05-10T00:27:18;63.56;57.33;66.20;;
46584;Laerm;32309;48.858;8.252;2023-05-10T00:31:19;63.01;57.16;65.59;;
46584;Laerm;32309;48.858;8.252;2023-05-10T00:33:19;63.21;59.08;65.46;;
46584;Laerm;32309;48.858;8.252;2023-05-10T00:35:20;63.24;58.60;66.32;;
46584;Laerm;32309;48.858;8.252;2023-05-10T00:37:21;62.77;57.61;65.18;;
46584;Laerm;32309;48.858;8.252;2023-05-10T00:39:21;62.64;57.36;65.33;;
46584;Laerm;32309;48.858;8.252;2023-05-10T00:41:22;62.33;56.68;64.42;;
46584;Laerm;32309;48.858;8.252;2023-05-10T00:43:22;61.03;57.02;63.54;;
46584;Laerm;32309;48.858;8.252;2023-05-10T00:45:22;61.58;57.29;63.95;;
46584;Laerm;32309;48.858;8.252;2023-05-10T00:47:23;61.84;57.91;64.04;;
46584;Laerm;32309;48.858;8.252;2023-05-10T00:49:23;61.67;57.80;63.64;;
46584;Laerm;32309;48.858;8.252;2023-05-10T00:51:24;61.82;58.33;63.95;;
46584;Laerm;32309;48.858;8.252;2023-05-10T00:53:25;61.56;57.72;63.98;;
46584;Laerm;32309;48.858;8.252;2023-05-10T00:55:25;61.96;57.57;64.28;;
46584;Laerm;32309;48.858;8.252;2023-05-10T00:57:26;61.58;58.07;63.74;;
46584;Laerm;32309;48.858;8.252;2023-05-10T00:59:26;61.51;57.69;63.62;;
46584;Laerm;32309;48.858;8.252;2023-05-10T01:01:28;61.88;58.70;64.03;;
46584;Laerm;32309;48.858;8.252;2023-05-10T01:03:28;61.94;57.54;64.12;;
46584;Laerm;32309;48.858;8.252;2023-05-10T01:05:29;61.83;58.64;64.06;;
46584;Laerm;32309;48.858;8.252;2023-05-10T01:09:29;61.99;55.69;64.15;;
46584;Laerm;32309;48.858;8.252;2023-05-10T01:11:30;62.40;57.72;65.74;;
46584;Laerm;32309;48.858;8.252;2023-05-10T01:13:35;62.37;58.04;64.34;;
46584;Laerm;32309;48.858;8.252;2023-05-10T01:15:36;62.36;59.13;64.86;;
46584;Laerm;32309;48.858;8.252;2023-05-10T01:17:38;61.92;58.02;64.04;;
46584;Laerm;32309;48.858;8.252;2023-05-10T01:19:40;61.48;57.85;63.78;;
46584;Laerm;32309;48.858;8.252;2023-05-10T01:21:49;61.69;57.87;63.76;;
46584;Laerm;32309;48.858;8.252;2023-05-10T01:26:28;61.38;57.97;64.33;;
46584;Laerm;32309;48.858;8.252;2023-05-10T01:33:52;62.34;58.21;64.67;;
46584;Laerm;32309;48.858;8.252;2023-05-10T01:36:29;62.50;58.56;65.81;;
46584;Laerm;32309;48.858;8.252;2023-05-10T01:38:49;62.63;58.57;65.67;;
46584;Laerm;32309;48.858;8.252;2023-05-10T01:41:20;62.30;58.85;64.93;;
46584;Laerm;32309;48.858;8.252;2023-05-10T01:43:28;62.33;56.00;66.30;;
46584;Laerm;32309;48.858;8.252;2023-05-10T01:47:41;62.51;57.81;65.36;;
46584;Laerm;32309;48.858;8.252;2023-05-10T01:49:50;61.89;57.77;64.72;;
46584;Laerm;32309;48.858;8.252;2023-05-10T01:51:53;62.02;58.49;65.08;;
46584;Laerm;32309;48.858;8.252;2023-05-10T01:53:59;61.95;57.49;65.67;;
46584;Laerm;32309;48.858;8.252;2023-05-10T01:56:01;61.72;58.44;66.01;;
46584;Laerm;32309;48.858;8.252;2023-05-10T02:00:23;61.67;58.23;64.21;;
46584;Laerm;32309;48.858;8.252;2023-05-10T02:02:25;61.69;56.11;65.06;;
46584;Laerm;32309;48.858;8.252;2023-05-10T02:04:26;61.61;57.57;64.44;;
46584;Laerm;32309;48.858;8.252;2023-05-10T02:10:30;60.28;56.71;63.72;;
46584;Laerm;32309;48.858;8.252;2023-05-10T02:12:32;60.35;55.91;62.91;;
46584;Laerm;32309;48.858;8.252;2023-05-10T02:14:36;60.45;55.35;62.73;;
46584;Laerm;32309;48.858;8.252;2023-05-10T02:16:37;60.85;56.65;63.17;;
46584;Laerm;32309;48.858;8.252;2023-05-10T02:18:40;60.89;56.52;63.31;;
46584;Laerm;32309;48.858;8.252;2023-05-10T02:20:43;60.79;56.16;63.16;;
46584;Laerm;32309;48.858;8.252;2023-05-10T02:22:47;61.45;57.43;63.68;;
46584;Laerm;32309;48.858;8.252;2023-05-10T02:24:49;61.75;58.44;63.78;;
46584;Laerm;32309;48.858;8.252;2023-05-10T02:26:53;61.86;58.75;64.01;;
46584;Laerm;32309;48.858;8.252;2023-05-10T02:28:56;61.92;57.08;65.48;;
46584;Laerm;32309;48.858;8.252;2023-05-10T02:30:57;62.19;57.93;66.06;;
46584;Laerm;32309;48.858;8.252;2023-05-10T02:32:58;61.97;58.88;64.49;;
46584;Laerm;32309;48.858;8.252;2023-05-10T02:35:00;61.89;58.74;63.96;;
46584;Laerm;32309;48.858;8.252;2023-05-10T02:37:02;62.08;58.64;64.51;;
46584;Laerm;32309;48.858;8.252;2023-05-10T02:39:03;61.74;57.12;63.80;;
46584;Laerm;32309;48.858;8.252;2023-05-10T02:41:05;61.44;56.54;63.94;;
46584;Laerm;32309;48.858;8.252;2023-05-10T02:43:10;61.36;58.10;63.77;;
46584;Laerm;32309;48.858;8.252;2023-05-10T02:47:13;61.47;56.75;64.44;;
46584;Laerm;32309;48.858;8.252;2023-05-10T02:49:14;60.27;56.77;63.52;;
46584;Laerm;32309;48.858;8.252;2023-05-10T02:51:16;61.70;57.86;64.90;;
46584;Laerm;32309;48.858;8.252;2023-05-10T02:53:23;61.50;56.65;64.75;;
46584;Laerm;32309;48.858;8.252;2023-05-10T02:55:30;61.89;57.53;65.00;;
46584;Laerm;32309;48.858;8.252;2023-05-10T02:57:34;61.65;58.51;64.62;;
46584;Laerm;32309;48.858;8.252;2023-05-10T02:59:34;61.64;57.03;64.71;;
46584;Laerm;32309;48.858;8.252;2023-05-10T03:01:35;61.68;57.71;66.17;;
46584;Laerm;32309;48.858;8.252;2023-05-10T03:03:35;61.43;56.70;64.87;;
46584;Laerm;32309;48.858;8.252;2023-05-10T03:05:35;60.29;56.21;63.73;;
46584;Laerm;32309;48.858;8.252;2023-05-10T03:09:36;61.26;57.65;63.78;;
46584;Laerm;32309;48.858;8.252;2023-05-10T03:11:43;61.26;57.10;63.38;;
46584;Laerm;32309;48.858;8.252;2023-05-10T03:13:59;61.08;56.83;63.35;;
46584;Laerm;32309;48.858;8.252;2023-05-10T03:20:29;61.50;56.37;64.02;;
46584;Laerm;32309;48.858;8.252;2023-05-10T03:22:37;61.87;57.36;63.95;;
46584;Laerm;32309;48.858;8.252;2023-05-10T03:24:41;61.60;57.29;64.08;;
46584;Laerm;32309;48.858;8.252;2023-05-10T03:26:43;61.64;58.10;63.65;;
46584;Laerm;32309;48.858;8.252;2023-05-10T03:28:45;61.69;58.33;63.58;;
46584;Laerm;32309;48.858;8.252;2023-05-10T03:30:48;61.39;57.18;65.32;;
46584;Laerm;32309;48.858;8.252;2023-05-10T03:32:49;60.97;56.50;63.32;;
46584;Laerm;32309;48.858;8.252;2023-05-10T03:34:50;61.12;57.29;63.56;;
46584;Laerm;32309;48.858;8.252;2023-05-10T03:36:50;60.99;57.54;63.11;;
46584;Laerm;32309;48.858;8.252;2023-05-10T03:38:50;60.72;55.78;63.46;;
46584;Laerm;32309;48.858;8.252;2023-05-10T03:40:51;61.28;57.51;63.56;;
46584;Laerm;32309;48.858;8.252;2023-05-10T03:42:51;61.27;57.05;63.35;;
46584;Laerm;32309;48.858;8.252;2023-05-10T03:44:51;61.16;56.94;63.45;;
46584;Laerm;32309;48.858;8.252;2023-05-10T03:46:51;61.68;56.44;64.29;;
46584;Laerm;32309;48.858;8.252;2023-05-10T03:48:52;62.53;58.70;64.60;;
46584;Laerm;32309;48.858;8.252;2023-05-10T03:54:52;60.88;56.06;63.55;;
46584;Laerm;32309;48.858;8.252;2023-05-10T03:56:53;60.86;56.32;63.31;;
46584;Laerm;32309;48.858;8.252;2023-05-10T03:58:53;60.91;55.03;63.62;;
46584;Laerm;32309;48.858;8.252;2023-05-10T04:00:53;61.21;56.12;64.88;;
46584;Laerm;32309;48.858;8.252;2023-05-10T04:02:53;61.57;58.16;64.67;;
46584;Laerm;32309;48.858;8.252;2023-05-10T04:06:54;61.77;58.37;63.74;;
46584;Laerm;32309;48.858;8.252;2023-05-10T04:08:54;61.75;58.40;63.94;;
46584;Laerm;32309;48.858;8.252;2023-05-10T04:11:07;61.54;57.75;64.11;;
46584;Laerm;32309;48.858;8.252;2023-05-10T04:13:08;61.76;58.11;64.08;;
46584;Laerm;32309;48.858;8.252;2023-05-10T04:15:08;62.78;58.66;65.47;;
46584;Laerm;32309;48.858;8.252;2023-05-10T04:17:09;63.01;59.19;65.04;;
46584;Laerm;32309;48.858;8.252;2023-05-10T04:19:10;63.05;59.73;64.94;;
46584;Laerm;32309;48.858;8.252;2023-05-10T04:21:13;63.01;59.84;65.55;;
46584;Laerm;32309;48.858;8.252;2023-05-10T04:23:13;62.44;59.04;64.35;;
46584;Laerm;32309;48.858;8.252;2023-05-10T04:25:15;62.52;58.99;64.49;;
46584;Laerm;32309;48.858;8.252;2023-05-10T04:27:15;61.99;58.71;64.49;;
46584;Laerm;32309;48.858;8.252;2023-05-10T04:29:15;62.21;58.95;64.17;;
46584;Laerm;32309;48.858;8.252;2023-05-10T04:31:16;62.28;59.27;64.21;;
46584;Laerm;32309;48.858;8.252;2023-05-10T04:33:17;62.10;57.91;64.30;;
46584;Laerm;32309;48.858;8.252;2023-05-10T04:35:17;61.98;58.69;64.15;;
46584;Laerm;32309;48.858;8.252;2023-05-10T04:37:17;61.81;58.92;64.03;;
46584;Laerm;32309;48.858;8.252;2023-05-10T04:39:18;61.83;58.63;63.94;;
46584;Laerm;32309;48.858;8.252;2023-05-10T04:41:18;62.23;59.85;64.41;;
46584;Laerm;32309;48.858;8.252;2023-05-10T04:43:18;62.18;59.36;64.51;;
46584;Laerm;32309;48.858;8.252;2023-05-10T04:47:19;61.88;57.93;64.04;;
46584;Laerm;32309;48.858;8.252;2023-05-10T04:49:19;61.77;58.82;63.73;;
46584;Laerm;32309;48.858;8.252;2023-05-10T04:51:20;61.82;58.02;64.07;;
46584;Laerm;32309;48.858;8.252;2023-05-10T04:53:21;62.29;59.39;64.49;;
46584;Laerm;32309;48.858;8.252;2023-05-10T04:55:21;62.53;58.87;64.60;;
46584;Laerm;32309;48.858;8.252;2023-05-10T04:57:21;62.43;59.47;64.33;;
46584;Laerm;32309;48.858;8.252;2023-05-10T04:59:22;62.33;59.53;64.28;;
46584;Laerm;32309;48.858;8.252;2023-05-10T05:01:22;62.57;59.59;64.31;;
46584;Laerm;32309;48.858;8.252;2023-05-10T05:03:23;62.22;59.44;64.70;;
46584;Laerm;32309;48.858;8.252;2023-05-10T05:05:23;61.97;59.08;64.16;;
46584;Laerm;32309;48.858;8.252;2023-05-10T05:07:23;61.92;58.99;64.38;;
46584;Laerm;32309;48.858;8.252;2023-05-10T05:09:24;62.74;59.58;65.52;;
46584;Laerm;32309;48.858;8.252;2023-05-10T05:11:24;63.21;60.23;65.16;;
46584;Laerm;32309;48.858;8.252;2023-05-10T05:13:25;63.28;58.98;65.53;;
46584;Laerm;32309;48.858;8.252;2023-05-10T05:15:25;62.89;58.89;64.93;;
46584;Laerm;32309;48.858;8.252;2023-05-10T05:17:26;62.97;59.78;64.93;;
46584;Laerm;32309;48.858;8.252;2023-05-10T05:19:26;63.11;59.63;65.19;;
46584;Laerm;32309;48.858;8.252;2023-05-10T05:21:27;62.94;60.52;64.86;;
46584;Laerm;32309;48.858;8.252;2023-05-10T05:23:28;63.52;60.41;65.59;;
46584;Laerm;32309;48.858;8.252;2023-05-10T05:25:29;63.43;60.35;66.52;;
46584;Laerm;32309;48.858;8.252;2023-05-10T05:27:29;63.45;58.76;65.40;;
46584;Laerm;32309;48.858;8.252;2023-05-10T05:29:29;63.01;59.51;65.14;;
46584;Laerm;32309;48.858;8.252;2023-05-10T05:31:30;63.13;60.37;65.00;;
46584;Laerm;32309;48.858;8.252;2023-05-10T05:33:30;63.18;60.18;65.56;;
46584;Laerm;32309;48.858;8.252;2023-05-10T05:35:30;63.30;60.26;66.61;;
46584;Laerm;32309;48.858;8.252;2023-05-10T05:37:31;63.29;60.30;65.18;;
46584;Laerm;32309;48.858;8.252;2023-05-10T05:39:31;63.16;60.20;65.12;;
46584;Laerm;32309;48.858;8.252;2023-05-10T05:41:31;63.15;59.80;65.11;;
46584;Laerm;32309;48.858;8.252;2023-05-10T05:43:32;63.24;60.12;65.52;;
46584;Laerm;32309;48.858;8.252;2023-05-10T05:45:32;63.65;60.98;65.64;;
46584;Laerm;32309;48.858;8.252;2023-05-10T05:47:32;63.85;60.52;65.82;;
46584;Laerm;32309;48.858;8.252;2023-05-10T05:49:33;63.68;59.92;65.80;;
46584;Laerm;32309;48.858;8.252;2023-05-10T05:51:35;63.87;60.89;66.06;;
46584;Laerm;32309;48.858;8.252;2023-05-10T05:53:35;63.21;60.39;65.19;;
46584;Laerm;32309;48.858;8.252;2023-05-10T05:55:36;63.57;60.27;65.52;;
46584;Laerm;32309;48.858;8.252;2023-05-10T05:57:36;63.87;60.48;66.10;;
46584;Laerm;32309;48.858;8.252;2023-05-10T05:59:36;63.69;60.55;65.79;;
46584;Laerm;32309;48.858;8.252;2023-05-10T06:01:41;63.71;60.92;65.76;;
46584;Laerm;32309;48.858;8.252;2023-05-10T06:03:42;63.62;60.82;65.60;;
46584;Laerm;32309;48.858;8.252;2023-05-10T06:05:42;63.39;60.12;65.78;;
46584;Laerm;32309;48.858;8.252;2023-05-10T06:07:42;62.82;60.00;64.84;;
46584;Laerm;32309;48.858;8.252;2023-05-10T06:09:45;62.61;59.30;64.47;;
46584;Laerm;32309;48.858;8.252;2023-05-10T06:11:47;62.72;59.40;64.70;;
46584;Laerm;32309;48.858;8.252;2023-05-10T06:13:55;62.46;59.25;64.89;;
46584;Laerm;32309;48.858;8.252;2023-05-10T06:15:56;62.43;58.61;64.83;;
46584;Laerm;32309;48.858;8.252;2023-05-10T06:17:58;62.71;58.43;65.02;;
46584;Laerm;32309;48.858;8.252;2023-05-10T06:20:07;62.55;58.12;65.45;;
46584;Laerm;32309;48.858;8.252;2023-05-10T06:22:13;63.28;59.28;66.02;;
46584;Laerm;32309;48.858;8.252;2023-05-10T06:24:18;63.26;58.41;65.19;;
46584;Laerm;32309;48.858;8.252;2023-05-10T06:28:19;60.87;55.45;64.80;;
46584;Laerm;32309;48.858;8.252;2023-05-10T06:30:19;59.97;55.95;62.59;;
46584;Laerm;32309;48.858;8.252;2023-05-10T06:34:34;63.42;56.62;65.97;;
46584;Laerm;32309;48.858;8.252;2023-05-10T06:36:34;62.82;57.71;65.86;;
46584;Laerm;32309;48.858;8.252;2023-05-10T06:38:35;62.70;55.02;66.06;;
46584;Laerm;32309;48.858;8.252;2023-05-10T06:40:41;62.02;56.07;65.99;;
46584;Laerm;32309;48.858;8.252;2023-05-10T06:42:44;61.94;56.08;64.29;;
46584;Laerm;32309;48.858;8.252;2023-05-10T06:44:49;60.85;55.73;64.30;;
46584;Laerm;32309;48.858;8.252;2023-05-10T06:46:52;59.85;54.53;63.87;;
46584;Laerm;32309;48.858;8.252;2023-05-10T06:48:59;59.68;55.31;63.87;;
46584;Laerm;32309;48.858;8.252;2023-05-10T06:51:05;60.13;55.38;64.62;;
46584;Laerm;32309;48.858;8.252;2023-05-10T06:53:08;60.15;55.39;64.58;;
46584;Laerm;32309;48.858;8.252;2023-05-10T06:55:10;60.15;55.39;64.58;;
46584;Laerm;32309;48.858;8.252;2023-05-10T06:57:13;61.01;54.16;64.23;;
46584;Laerm;32309;48.858;8.252;2023-05-10T07:01:16;59.53;55.35;63.67;;
46584;Laerm;32309;48.858;8.252;2023-05-10T07:03:26;59.21;54.26;62.18;;
46584;Laerm;32309;48.858;8.252;2023-05-10T07:05:27;61.53;54.54;66.17;;
46584;Laerm;32309;48.858;8.252;2023-05-10T07:07:30;58.66;54.60;65.81;;
46584;Laerm;32309;48.858;8.252;2023-05-10T07:09:37;61.45;54.69;66.51;;
46584;Laerm;32309;48.858;8.252;2023-05-10T07:12:01;60.12;54.72;65.92;;
46584;Laerm;32309;48.858;8.252;2023-05-10T07:14:06;61.47;53.80;66.85;;
46584;Laerm;32309;48.858;8.252;2023-05-10T07:16:07;61.96;54.10;66.27;;
46584;Laerm;32309;48.858;8.252;2023-05-10T07:18:12;61.05;54.13;65.74;;
46584;Laerm;32309;48.858;8.252;2023-05-10T07:20:12;59.47;54.30;64.60;;
46584;Laerm;32309;48.858;8.252;2023-05-10T07:22:12;60.12;53.86;64.27;;
46584;Laerm;32309;48.858;8.252;2023-05-10T07:24:13;58.85;54.47;64.27;;
46584;Laerm;32309;48.858;8.252;2023-05-10T07:26:22;60.63;54.40;64.44;;
46584;Laerm;32309;48.858;8.252;2023-05-10T07:28:24;58.84;54.14;64.21;;
46584;Laerm;32309;48.858;8.252;2023-05-10T07:30:24;60.16;54.22;64.28;;
46584;Laerm;32309;48.858;8.252;2023-05-10T07:32:24;59.83;53.16;63.99;;
46584;Laerm;32309;48.858;8.252;2023-05-10T07:34:25;59.68;53.77;63.57;;
46584;Laerm;32309;48.858;8.252;2023-05-10T07:36:25;60.23;53.80;64.02;;
46584;Laerm;32309;48.858;8.252;2023-05-10T07:38:25;58.99;54.01;63.52;;
46584;Laerm;32309;48.858;8.252;2023-05-10T07:40:26;57.70;53.74;63.24;;
46584;Laerm;32309;48.858;8.252;2023-05-10T07:42:26;58.97;53.50;63.40;;
46584;Laerm;32309;48.858;8.252;2023-05-10T07:46:30;59.07;53.87;62.80;;
46584;Laerm;32309;48.858;8.252;2023-05-10T07:48:33;59.77;54.29;62.77;;
46584;Laerm;32309;48.858;8.252;2023-05-10T07:50:33;60.05;54.32;62.55;;
46584;Laerm;32309;48.858;8.252;2023-05-10T07:52:33;59.32;53.61;62.84;;
46584;Laerm;32309;48.858;8.252;2023-05-10T07:54:34;59.32;53.61;62.84;;
46584;Laerm;32309;48.858;8.252;2023-05-10T07:56:34;59.12;53.57;62.54;;
46584;Laerm;32309;48.858;8.252;2023-05-10T07:58:37;59.57;54.09;63.29;;
46584;Laerm;32309;48.858;8.252;2023-05-10T08:00:46;58.63;53.88;61.90;;
46584;Laerm;32309;48.858;8.252;2023-05-10T08:02:47;58.69;53.45;61.72;;
46584;Laerm;32309;48.858;8.252;2023-05-10T08:05:09;59.53;54.05;61.83;;
46584;Laerm;32309;48.858;8.252;2023-05-10T08:15:21;58.41;53.46;61.82;;
46584;Laerm;32309;48.858;8.252;2023-05-10T08:18:01;58.40;53.43;61.98;;
46584;Laerm;32309;48.858;8.252;2023-05-10T08:20:04;58.21;53.78;62.12;;
46584;Laerm;32309;48.858;8.252;2023-05-10T08:22:08;58.58;53.27;62.21;;
46584;Laerm;32309;48.858;8.252;2023-05-10T08:26:08;58.28;53.74;61.52;;
46584;Laerm;32309;48.858;8.252;2023-05-10T08:28:09;57.47;52.96;61.28;;
46584;Laerm;32309;48.858;8.252;2023-05-10T08:30:20;59.11;53.19;61.59;;
46584;Laerm;32309;48.858;8.252;2023-05-10T08:32:20;58.92;53.95;61.65;;
46584;Laerm;32309;48.858;8.252;2023-05-10T08:34:21;58.75;54.49;62.42;;
46584;Laerm;32309;48.858;8.252;2023-05-10T08:36:24;59.03;54.93;61.55;;
46584;Laerm;32309;48.858;8.252;2023-05-10T08:38:24;58.87;53.73;61.77;;
46584;Laerm;32309;48.858;8.252;2023-05-10T08:40:26;58.65;53.94;61.39;;
46584;Laerm;32309;48.858;8.252;2023-05-10T08:42:30;57.97;53.53;61.96;;
46584;Laerm;32309;48.858;8.252;2023-05-10T08:44:41;58.53;53.47;61.43;;
46584;Laerm;32309;48.858;8.252;2023-05-10T08:49:31;58.50;53.09;61.51;;
46584;Laerm;32309;48.858;8.252;2023-05-10T08:51:40;58.20;53.39;61.67;;
46584;Laerm;32309;48.858;8.252;2023-05-10T08:53:52;58.63;54.10;61.45;;
46584;Laerm;32309;48.858;8.252;2023-05-10T08:56:03;57.56;53.08;60.99;;
46584;Laerm;32309;48.858;8.252;2023-05-10T08:58:04;58.18;52.92;61.85;;
46584;Laerm;32309;48.858;8.252;2023-05-10T09:00:07;58.65;53.85;61.51;;
46584;Laerm;32309;48.858;8.252;2023-05-10T09:02:10;58.96;53.87;61.33;;
46584;Laerm;32309;48.858;8.252;2023-05-10T09:04:32;57.70;53.77;61.58;;
46584;Laerm;32309;48.858;8.252;2023-05-10T09:06:33;58.38;53.45;61.18;;
46584;Laerm;32309;48.858;8.252;2023-05-10T09:18:11;59.98;53.44;63.30;;
46584;Laerm;32309;48.858;8.252;2023-05-10T09:20:12;57.91;53.44;63.23;;
46584;Laerm;32309;48.858;8.252;2023-05-10T09:22:13;60.05;52.75;63.28;;
46584;Laerm;32309;48.858;8.252;2023-05-10T09:24:13;60.66;52.85;64.07;;
46584;Laerm;32309;48.858;8.252;2023-05-10T09:26:13;58.61;51.86;63.24;;
46584;Laerm;32309;48.858;8.252;2023-05-10T09:28:16;59.21;53.48;63.45;;
46584;Laerm;32309;48.858;8.252;2023-05-10T09:32:36;58.92;53.11;63.15;;
46584;Laerm;32309;48.858;8.252;2023-05-10T09:34:36;58.40;53.07;63.32;;
46584;Laerm;32309;48.858;8.252;2023-05-10T09:36:52;59.13;53.27;62.49;;
46584;Laerm;32309;48.858;8.252;2023-05-10T09:39:00;58.85;52.65;62.44;;
46584;Laerm;32309;48.858;8.252;2023-05-10T09:41:01;58.85;53.72;61.92;;
46584;Laerm;32309;48.858;8.252;2023-05-10T09:43:05;59.22;53.64;61.78;;
46584;Laerm;32309;48.858;8.252;2023-05-10T09:45:07;58.95;53.95;61.99;;
46584;Laerm;32309;48.858;8.252;2023-05-10T09:47:07;58.67;52.63;61.97;;
46584;Laerm;32309;48.858;8.252;2023-05-10T09:49:07;58.67;52.63;61.97;;
46584;Laerm;32309;48.858;8.252;2023-05-10T09:51:08;58.11;52.54;61.60;;
46584;Laerm;32309;48.858;8.252;2023-05-10T09:53:08;58.58;54.08;61.47;;
46584;Laerm;32309;48.858;8.252;2023-05-10T09:55:08;58.28;52.80;61.47;;
46584;Laerm;32309;48.858;8.252;2023-05-10T09:59:18;59.08;54.53;61.75;;
46584;Laerm;32309;48.858;8.252;2023-05-10T10:01:19;58.91;53.18;61.77;;
46584;Laerm;32309;48.858;8.252;2023-05-10T10:03:20;58.48;54.56;61.50;;
46584;Laerm;32309;48.858;8.252;2023-05-10T10:05:28;58.24;53.36;61.52;;
46584;Laerm;32309;48.858;8.252;2023-05-10T10:07:28;58.44;55.11;61.24;;
46584;Laerm;32309;48.858;8.252;2023-05-10T10:09:29;58.49;53.68;61.52;;
46584;Laerm;32309;48.858;8.252;2023-05-10T10:13:30;58.53;53.70;61.65;;
46584;Laerm;32309;48.858;8.252;2023-05-10T10:15:30;58.64;54.75;61.58;;
46584;Laerm;32309;48.858;8.252;2023-05-10T10:17:31;58.52;53.53;62.22;;
46584;Laerm;32309;48.858;8.252;2023-05-10T10:21:35;56.87;53.43;61.09;;
46584;Laerm;32309;48.858;8.252;2023-05-10T10:23:36;58.34;52.81;61.81;;
46584;Laerm;32309;48.858;8.252;2023-05-10T10:25:37;58.32;53.69;61.77;;
46584;Laerm;32309;48.858;8.252;2023-05-10T10:34:22;57.76;53.29;61.67;;
46584;Laerm;32309;48.858;8.252;2023-05-10T10:36:28;55.26;52.64;57.72;;
46584;Laerm;32309;48.858;8.252;2023-05-10T10:40:47;55.06;52.54;57.62;;
46584;Laerm;32309;48.858;8.252;2023-05-10T10:42:50;55.25;52.33;57.70;;
46584;Laerm;32309;48.858;8.252;2023-05-10T10:45:13;55.19;52.70;57.82;;
46584;Laerm;32309;48.858;8.252;2023-05-10T10:49:18;54.85;52.43;57.21;;
46584;Laerm;32309;48.858;8.252;2023-05-10T10:51:19;54.95;52.81;57.30;;
46584;Laerm;32309;48.858;8.252;2023-05-10T10:53:19;54.88;52.82;57.11;;
46584;Laerm;32309;48.858;8.252;2023-05-10T10:55:22;56.88;52.90;60.93;;
46584;Laerm;32309;48.858;8.252;2023-05-10T10:57:27;57.98;54.38;61.78;;
46584;Laerm;32309;48.858;8.252;2023-05-10T10:59:30;58.07;54.14;61.57;;
46584;Laerm;32309;48.858;8.252;2023-05-10T11:04:16;57.96;54.04;61.45;;
46584;Laerm;32309;48.858;8.252;2023-05-10T11:09:19;55.66;52.66;58.50;;
46584;Laerm;32309;48.858;8.252;2023-05-10T11:14:19;56.30;52.47;60.67;;
46584;Laerm;32309;48.858;8.252;2023-05-10T11:16:45;58.08;52.72;62.41;;
46584;Laerm;32309;48.858;8.252;2023-05-10T11:19:07;58.10;53.16;61.57;;
46584;Laerm;32309;48.858;8.252;2023-05-10T11:24:58;57.73;55.20;61.66;;
46584;Laerm;32309;48.858;8.252;2023-05-10T11:27:39;57.69;55.28;61.89;;
46584;Laerm;32309;48.858;8.252;2023-05-10T11:29:58;57.22;53.25;61.33;;
46584;Laerm;32309;48.858;8.252;2023-05-10T11:57:11;56.97;52.84;62.35;;
46584;Laerm;32309;48.858;8.252;2023-05-10T12:39:14;56.26;52.67;61.67;;
46584;Laerm;32309;48.858;8.252;2023-05-10T12:54:20;55.16;52.21;57.91;;
46584;Laerm;32309;48.858;8.252;2023-05-10T12:59:30;55.40;52.39;59.05;;
46584;Laerm;32309;48.858;8.252;2023-05-10T13:02:19;55.35;52.33;58.31;;
46584;Laerm;32309;48.858;8.252;2023-05-10T13:23:16;55.59;52.00;60.87;;
46584;Laerm;32309;48.858;8.252;2023-05-10T13:28:55;55.72;52.13;60.37;;
46584;Laerm;32309;48.858;8.252;2023-05-10T13:48:48;55.56;52.45;58.80;;
46584;Laerm;32309;48.858;8.252;2023-05-10T14:15:57;54.94;51.88;58.71;;
46584;Laerm;32309;48.858;8.252;2023-05-10T14:32:36;54.68;51.50;58.75;;
46584;Laerm;32309;48.858;8.252;2023-05-10T14:35:17;54.48;51.40;58.97;;
46584;Laerm;32309;48.858;8.252;2023-05-10T15:01:01;54.54;52.11;58.46;;
46584;Laerm;32309;48.858;8.252;2023-05-10T15:03:01;54.79;52.44;58.23;;
46584;Laerm;32309;48.858;8.252;2023-05-10T15:05:02;54.41;51.78;57.85;;
46584;Laerm;32309;48.858;8.252;2023-05-10T15:07:02;54.62;52.12;58.11;;
46584;Laerm;32309;48.858;8.252;2023-05-10T15:09:03;54.29;51.73;58.61;;
46584;Laerm;32309;48.858;8.252;2023-05-10T15:11:05;54.20;51.83;57.72;;
46584;Laerm;32309;48.858;8.252;2023-05-10T15:13:06;53.91;51.80;58.03;;
46584;Laerm;32309;48.858;8.252;2023-05-10T15:17:07;54.57;51.86;58.17;;
46584;Laerm;32309;48.858;8.252;2023-05-10T15:19:07;54.96;51.96;58.30;;
46584;Laerm;32309;48.858;8.252;2023-05-10T15:21:08;54.49;51.91;57.85;;
46584;Laerm;32309;48.858;8.252;2023-05-10T15:23:08;54.62;52.08;57.86;;
46584;Laerm;32309;48.858;8.252;2023-05-10T15:25:09;54.41;51.95;58.37;;
46584;Laerm;32309;48.858;8.252;2023-05-10T15:27:09;54.79;52.21;58.47;;
46584;Laerm;32309;48.858;8.252;2023-05-10T15:29:10;54.43;52.10;57.09;;
46584;Laerm;32309;48.858;8.252;2023-05-10T15:31:10;54.75;52.29;57.98;;
46584;Laerm;32309;48.858;8.252;2023-05-10T15:33:10;55.14;52.54;57.96;;
46584;Laerm;32309;48.858;8.252;2023-05-10T15:35:10;55.14;52.54;57.96;;
46584;Laerm;32309;48.858;8.252;2023-05-10T15:37:11;54.58;52.10;57.91;;
46584;Laerm;32309;48.858;8.252;2023-05-10T15:39:11;54.64;51.97;57.70;;
46584;Laerm;32309;48.858;8.252;2023-05-10T15:41:11;54.78;52.24;57.63;;
46584;Laerm;32309;48.858;8.252;2023-05-10T15:45:12;54.68;52.03;58.35;;
46584;Laerm;32309;48.858;8.252;2023-05-10T15:47:13;55.18;52.03;59.66;;
46584;Laerm;32309;48.858;8.252;2023-05-10T15:49:13;54.39;52.04;57.77;;
46584;Laerm;32309;48.858;8.252;2023-05-10T15:51:13;54.64;52.10;58.26;;
46584;Laerm;32309;48.858;8.252;2023-05-10T15:53:14;54.70;52.02;58.35;;
46584;Laerm;32309;48.858;8.252;2023-05-10T15:55:14;53.94;51.39;57.07;;
46584;Laerm;32309;48.858;8.252;2023-05-10T15:57:15;54.29;52.09;59.14;;
46584;Laerm;32309;48.858;8.252;2023-05-10T15:59:15;54.73;51.83;58.18;;
46584;Laerm;32309;48.858;8.252;2023-05-10T16:01:16;54.41;51.97;58.30;;
46584;Laerm;32309;48.858;8.252;2023-05-10T16:03:16;54.01;51.59;57.51;;
46584;Laerm;32309;48.858;8.252;2023-05-10T16:05:16;54.41;51.63;57.71;;
46584;Laerm;32309;48.858;8.252;2023-05-10T16:07:16;54.54;51.62;58.21;;
46584;Laerm;32309;48.858;8.252;2023-05-10T16:09:17;55.22;52.00;57.88;;
46584;Laerm;32309;48.858;8.252;2023-05-10T16:11:17;54.91;51.49;57.91;;
46584;Laerm;32309;48.858;8.252;2023-05-10T16:13:18;53.84;51.68;57.90;;
46584;Laerm;32309;48.858;8.252;2023-05-10T16:15:18;54.97;52.00;58.26;;
46584;Laerm;32309;48.858;8.252;2023-05-10T16:17:20;54.96;51.72;58.07;;
46584;Laerm;32309;48.858;8.252;2023-05-10T16:19:21;54.91;52.29;58.39;;